Time;durP1;ratioP1;P1;durP2;ratioP2;P2;SDS_P1;SDS_P2;PMS_P1;PMS_P2;Temp;Humidity;BMP_temperature;BMP_pressure;BME280_temperature;BME280_humidity;BME280_pressure;Samples;Min_cycle;Max_cycle;Signal;HPM_P1;HPM_P2
2023/04/01 00:01:07;;;;;;;;;;;8.70;99.90;;;;;;4967461;28;19930;-90
2023/04/01 00:03:35;;;;;;;;;;;8.70;99.90;;;;;;4972381;28;19930;-90
2023/04/01 00:06:02;;;;;;;;;;;8.70;99.90;;;;;;4986066;28;20363;-91
2023/04/01 00:08:30;;;;;;;;;;;8.70;99.90;;;;;;4965232;28;19969;-91
2023/04/01 00:10:57;;;;;;;;;;;8.70;99.90;;;;;;4972730;28;19926;-91
2023/04/01 00:13:25;;;;;;;;;;;8.70;99.90;;;;;;4989207;28;19957;-92
2023/04/01 00:15:52;;;;;;;;;;;8.70;99.90;;;;;;5004969;28;19934;-92
2023/04/01 00:18:20;;;;;;;;;;;8.70;99.90;;;;;;4975265;28;19930;-90
2023/04/01 00:20:51;;;;;;;;;;;8.70;99.90;;;;;;4968769;28;19980;-91
2023/04/01 00:23:18;;;;;;;;;;;8.70;99.90;;;;;;4969735;28;19976;-92
2023/04/01 00:25:47;;;;;;;;;;;8.70;99.90;;;;;;4966101;28;19933;-91
2023/04/01 00:28:14;;;;;;;;;;;8.70;99.90;;;;;;4970650;28;20055;-90
2023/04/01 00:30:41;;;;;;;;;;;8.70;99.90;;;;;;4982066;28;19926;-90
2023/04/01 00:33:08;;;;;;;;;;;8.60;99.90;;;;;;4982331;28;20025;-90
2023/04/01 00:35:35;;;;;;;;;;;8.60;99.90;;;;;;4963590;28;19934;-90
2023/04/01 00:38:04;;;;;;;;;;;8.60;99.90;;;;;;4972249;28;20293;-91
2023/04/01 00:40:33;;;;;;;;;;;8.60;99.90;;;;;;4968139;28;19927;-91
2023/04/01 00:43:00;;;;;;;;;;;8.60;99.90;;;;;;4970522;28;19965;-91
2023/04/01 00:45:30;;;;;;;;;;;8.60;99.90;;;;;;4965064;28;19961;-91
2023/04/01 00:47:59;;;;;;;;;;;8.60;99.90;;;;;;4969576;28;19926;-91
2023/04/01 00:50:27;;;;;;;;;;;8.60;99.90;;;;;;4971157;28;20389;-90
2023/04/01 00:52:54;;;;;;;;;;;8.60;99.90;;;;;;4967009;28;19939;-89
2023/04/01 00:55:24;;;;;;;;;;;8.60;99.90;;;;;;4968023;28;19926;-90
2023/04/01 00:57:51;;;;;;;;;;;8.60;99.90;;;;;;4969669;28;20424;-90
2023/04/01 01:00:18;;;;;;;;;;;8.60;99.90;;;;;;4966847;28;20029;-91
2023/04/01 01:02:46;;;;;;;;;;;8.60;99.90;;;;;;4974119;28;19926;-90
2023/04/01 01:05:14;;;;;;;;;;;8.60;99.90;;;;;;4969300;28;20681;-91
2023/04/01 01:07:45;;;;;;;;;;;8.60;99.90;;;;;;4971481;28;19935;-90
2023/04/01 01:10:17;;;;;;;;;;;8.50;99.90;;;;;;4966206;28;19926;-89
2023/04/01 01:12:47;;;;;;;;;;;8.50;99.90;;;;;;4970154;28;20023;-89
2023/04/01 01:15:18;;;;;;;;;;;8.50;99.90;;;;;;4966548;28;19926;-88
2023/04/01 01:17:49;;;;;;;;;;;8.50;99.90;;;;;;4964665;28;19973;-87
2023/04/01 01:20:37;;;;;;;;;;;8.50;99.90;;;;;;4973106;28;20339;-88
2023/04/01 01:23:23;;;;;;;;;;;8.50;99.90;;;;;;4963755;28;19926;-88
2023/04/01 01:25:55;;;;;;;;;;;8.50;99.90;;;;;;4962496;28;19934;-88
2023/04/01 01:28:29;;;;;;;;;;;8.40;99.90;;;;;;4967738;28;19966;-88
2023/04/01 01:31:02;;;;;;;;;;;8.50;99.90;;;;;;4966129;28;20341;-88
2023/04/01 01:33:42;;;;;;;;;;;8.50;99.90;;;;;;4967005;28;19930;-87
2023/04/01 01:36:12;;;;;;;;;;;8.40;99.90;;;;;;4960332;28;19941;-88
2023/04/01 01:38:40;;;;;;;;;;;8.40;99.90;;;;;;4964649;28;19965;-88
2023/04/01 01:41:08;;;;;;;;;;;8.40;99.90;;;;;;4978651;28;19926;-88
2023/04/01 01:43:37;;;;;;;;;;;8.40;99.90;;;;;;4961436;28;20426;-88
2023/04/01 01:46:07;;;;;;;;;;;8.40;99.90;;;;;;4968840;28;19926;-88
2023/04/01 01:48:34;;;;;;;;;;;8.40;99.90;;;;;;4963321;28;19937;-88
2023/04/01 01:51:02;;;;;;;;;;;8.30;99.90;;;;;;4961244;28;20215;-88
2023/04/01 01:53:30;;;;;;;;;;;8.40;99.90;;;;;;4967468;28;19934;-87
2023/04/01 01:55:57;;;;;;;;;;;8.30;99.90;;;;;;4967006;28;19949;-88
2023/04/01 01:58:26;;;;;;;;;;;8.40;99.90;;;;;;4960445;28;20017;-88
2023/04/01 02:00:54;;;;;;;;;;;8.30;99.90;;;;;;4961167;28;19981;-88
2023/04/01 02:03:22;;;;;;;;;;;8.30;99.90;;;;;;4965044;28;19966;-88
2023/04/01 02:05:51;;;;;;;;;;;8.30;99.90;;;;;;4959762;28;20455;-86
2023/04/01 02:08:20;;;;;;;;;;;8.30;99.90;;;;;;4966875;28;20243;-88
2023/04/01 02:10:52;;;;;;;;;;;8.30;99.90;;;;;;4967592;28;19926;-88
2023/04/01 02:13:24;;;;;;;;;;;8.30;99.90;;;;;;4966874;28;20475;-88
2023/04/01 02:15:52;;;;;;;;;;;8.30;99.90;;;;;;4962651;28;19926;-88
2023/04/01 02:18:20;;;;;;;;;;;8.30;99.90;;;;;;4966588;28;20400;-89
2023/04/01 02:20:47;;;;;;;;;;;8.30;99.90;;;;;;4960874;28;19962;-87
2023/04/01 02:23:14;;;;;;;;;;;8.30;99.90;;;;;;4965847;28;19930;-88
2023/04/01 02:25:42;;;;;;;;;;;8.30;99.90;;;;;;4965892;28;19973;-88
2023/04/01 02:28:11;;;;;;;;;;;8.30;99.90;;;;;;4967395;28;19965;-88
2023/04/01 02:30:40;;;;;;;;;;;8.30;99.90;;;;;;4959286;28;20401;-88
2023/04/01 02:33:08;;;;;;;;;;;8.20;99.90;;;;;;4962557;28;19941;-87
2023/04/01 02:35:36;;;;;;;;;;;8.20;99.90;;;;;;4965432;28;19932;-87
2023/04/01 02:38:03;;;;;;;;;;;8.20;99.90;;;;;;4966248;28;19927;-88
2023/04/01 02:40:30;;;;;;;;;;;8.20;99.90;;;;;;4979486;28;19926;-88
2023/04/01 02:42:57;;;;;;;;;;;8.30;99.90;;;;;;4965414;28;19934;-88
2023/04/01 02:45:25;;;;;;;;;;;8.20;99.90;;;;;;4964917;28;20028;-88
2023/04/01 02:47:52;;;;;;;;;;;8.20;99.90;;;;;;4962940;28;19930;-88
2023/04/01 02:50:19;;;;;;;;;;;8.20;99.90;;;;;;4961669;28;19993;-88
2023/04/01 02:52:46;;;;;;;;;;;8.20;99.90;;;;;;4963693;28;19933;-87
2023/04/01 02:55:13;;;;;;;;;;;8.20;99.90;;;;;;4978924;28;19938;-87
2023/04/01 02:57:40;;;;;;;;;;;8.20;99.90;;;;;;4961746;28;19926;-88
2023/04/01 03:00:11;;;;;;;;;;;8.20;99.90;;;;;;4958373;28;19932;-88
2023/04/01 03:02:40;;;;;;;;;;;8.20;99.90;;;;;;4965036;28;19926;-88
2023/04/01 03:05:07;;;;;;;;;;;8.10;99.90;;;;;;4966446;28;19941;-88
2023/04/01 03:07:34;;;;;;;;;;;8.10;99.90;;;;;;4964420;28;19979;-89
2023/04/01 03:10:01;;;;;;;;;;;8.10;99.90;;;;;;4961983;28;19926;-88
2023/04/01 03:12:28;;;;;;;;;;;8.10;99.90;;;;;;4969259;28;19937;-87
2023/04/01 03:14:54;;;;;;;;;;;8.10;99.90;;;;;;4962775;28;19972;-88
2023/04/01 03:17:21;;;;;;;;;;;8.10;99.90;;;;;;4960924;28;19930;-88
2023/04/01 03:19:49;;;;;;;;;;;8.10;99.90;;;;;;4963632;28;19926;-87
2023/04/01 03:22:18;;;;;;;;;;;8.10;99.90;;;;;;4966391;28;19934;-88
2023/04/01 03:24:45;;;;;;;;;;;8.10;99.90;;;;;;4962903;28;19926;-88
2023/04/01 03:27:12;;;;;;;;;;;8.10;99.90;;;;;;4962660;28;19933;-87
2023/04/01 03:29:39;;;;;;;;;;;8.00;99.90;;;;;;4963039;28;19934;-87
2023/04/01 03:32:06;;;;;;;;;;;8.00;99.90;;;;;;4961279;28;19930;-88
2023/04/01 03:34:33;;;;;;;;;;;8.00;99.90;;;;;;4961724;28;19973;-88
2023/04/01 03:37:05;;;;;;;;;;;8.10;99.90;;;;;;4960754;28;20110;-88
2023/04/01 03:39:32;;;;;;;;;;;8.00;99.90;;;;;;4960187;28;19964;-88
2023/04/01 03:42:00;;;;;;;;;;;8.00;99.90;;;;;;4963503;28;20001;-88
2023/04/01 03:44:27;;;;;;;;;;;8.00;99.90;;;;;;4979824;28;19989;-87
2023/04/01 03:46:55;;;;;;;;;;;8.00;99.90;;;;;;4982106;28;19926;-87
2023/04/01 03:49:22;;;;;;;;;;;8.00;99.90;;;;;;4969288;28;19926;-87
2023/04/01 03:51:50;;;;;;;;;;;8.00;99.90;;;;;;4977796;28;19934;-88
2023/04/01 03:54:19;;;;;;;;;;;8.00;99.90;;;;;;4960883;28;20009;-89
2023/04/01 03:56:46;;;;;;;;;;;7.90;99.90;;;;;;4951490;28;19937;-87
2023/04/01 03:59:13;;;;;;;;;;;8.00;99.90;;;;;;4962494;28;20013;-88
2023/04/01 04:01:40;;;;;;;;;;;8.00;99.90;;;;;;4960059;28;19930;-88
2023/04/01 04:04:08;;;;;;;;;;;8.00;99.90;;;;;;4955837;28;19926;-88
2023/04/01 04:06:35;;;;;;;;;;;7.90;99.90;;;;;;4963581;28;19929;-89
2023/04/01 04:09:02;;;;;;;;;;;7.90;99.90;;;;;;4962948;28;19926;-88
2023/04/01 04:11:33;;;;;;;;;;;7.90;99.90;;;;;;4962206;28;19978;-88
2023/04/01 04:13:59;;;;;;;;;;;8.00;99.90;;;;;;4979984;28;19930;-88
2023/04/01 04:16:26;;;;;;;;;;;7.90;99.90;;;;;;4966593;28;19973;-88
2023/04/01 04:18:58;;;;;;;;;;;7.90;99.90;;;;;;4964641;28;20482;-87
2023/04/01 04:21:25;;;;;;;;;;;8.00;99.90;;;;;;4962943;28;19933;-87
2023/04/01 04:23:51;;;;;;;;;;;7.90;99.90;;;;;;4983521;28;19937;-88
2023/04/01 04:26:19;;;;;;;;;;;7.90;99.90;;;;;;4962496;28;19934;-88
2023/04/01 04:28:56;;;;;;;;;;;7.90;99.90;;;;;;4962172;28;19926;-86
2023/04/01 04:31:23;;;;;;;;;;;7.90;99.90;;;;;;4960438;28;19927;-88
2023/04/01 04:33:52;;;;;;;;;;;7.80;99.90;;;;;;4969214;28;19930;-88
2023/04/01 04:36:19;;;;;;;;;;;7.80;99.90;;;;;;4961668;28;19933;-88
2023/04/01 04:38:48;;;;;;;;;;;7.80;99.90;;;;;;4960953;28;20585;-89
2023/04/01 04:41:17;;;;;;;;;;;7.80;99.90;;;;;;4965597;28;20093;-88
2023/04/01 04:43:50;;;;;;;;;;;7.80;99.90;;;;;;4965528;28;20393;-88
2023/04/01 04:46:18;;;;;;;;;;;7.80;99.90;;;;;;4963742;28;19926;-88
2023/04/01 04:48:46;;;;;;;;;;;7.80;99.90;;;;;;4959568;28;19957;-88
2023/04/01 04:51:16;;;;;;;;;;;7.80;99.90;;;;;;4963703;28;20029;-88
2023/04/01 04:53:43;;;;;;;;;;;7.70;99.90;;;;;;4961817;28;20546;-88
2023/04/01 04:56:10;;;;;;;;;;;7.70;99.90;;;;;;4958976;28;20317;-88
2023/04/01 04:58:47;;;;;;;;;;;7.70;99.90;;;;;;4965447;28;19941;-88
2023/04/01 05:01:20;;;;;;;;;;;7.70;99.90;;;;;;4965007;28;19926;-89
2023/04/01 05:03:47;;;;;;;;;;;7.70;99.90;;;;;;4965619;28;20112;-88
2023/04/01 05:06:15;;;;;;;;;;;7.70;99.90;;;;;;4962536;28;19926;-88
2023/04/01 05:08:42;;;;;;;;;;;7.70;99.90;;;;;;4965040;28;20013;-88
2023/04/01 05:11:11;;;;;;;;;;;7.70;99.90;;;;;;4968028;28;20029;-88
2023/04/01 05:13:39;;;;;;;;;;;7.70;99.90;;;;;;4963998;28;19937;-90
2023/04/01 05:16:08;;;;;;;;;;;7.70;99.90;;;;;;4964213;28;20009;-90
2023/04/01 05:18:36;;;;;;;;;;;7.70;99.90;;;;;;4966930;28;19926;-91
2023/04/01 05:21:03;;;;;;;;;;;7.70;99.90;;;;;;4981720;28;19927;-91
2023/04/01 05:23:31;;;;;;;;;;;7.60;99.90;;;;;;4971908;28;19997;-90
2023/04/01 05:25:58;;;;;;;;;;;7.60;99.90;;;;;;4970865;28;20840;-90
2023/04/01 05:28:25;;;;;;;;;;;7.60;99.90;;;;;;4969179;28;20401;-90
2023/04/01 05:30:52;;;;;;;;;;;7.60;99.90;;;;;;4969710;28;19926;-90
2023/04/01 05:33:24;;;;;;;;;;;7.60;99.90;;;;;;4985511;28;19933;-90
2023/04/01 05:35:54;;;;;;;;;;;7.60;99.90;;;;;;4969800;28;19934;-92
2023/04/01 05:38:21;;;;;;;;;;;7.60;99.90;;;;;;4968275;28;19941;-91
2023/04/01 05:40:47;;;;;;;;;;;7.60;99.90;;;;;;4986451;28;19961;-92
2023/04/01 05:43:15;;;;;;;;;;;7.60;99.90;;;;;;4967484;28;20020;-90
2023/04/01 05:45:43;;;;;;;;;;;7.60;99.90;;;;;;4970227;28;19933;-89
2023/04/01 05:48:29;;;;;;;;;;;7.60;99.90;;;;;;4968341;28;20036;-90
2023/04/01 05:50:57;;;;;;;;;;;7.60;99.90;;;;;;4965774;28;20307;-89
2023/04/01 05:53:24;;;;;;;;;;;7.60;99.90;;;;;;4963867;28;19930;-91
2023/04/01 05:55:51;;;;;;;;;;;7.50;99.90;;;;;;4967355;28;19965;-90
2023/04/01 05:58:18;;;;;;;;;;;7.50;99.90;;;;;;4957341;28;19930;-91
2023/04/01 06:00:47;;;;;;;;;;;7.50;99.90;;;;;;4959815;28;19940;-90
2023/04/01 06:03:17;;;;;;;;;;;7.50;99.90;;;;;;4964917;28;19930;-91
2023/04/01 06:05:45;;;;;;;;;;;7.50;99.90;;;;;;4960062;28;19933;-91
2023/04/01 06:08:15;;;;;;;;;;;7.60;99.90;;;;;;4954176;28;19938;-90
2023/04/01 06:10:46;;;;;;;;;;;7.50;99.90;;;;;;4962929;28;19926;-92
2023/04/01 06:13:20;;;;;;;;;;;7.50;99.90;;;;;;4963385;28;19981;-87
2023/04/01 06:15:54;;;;;;;;;;;7.50;99.90;;;;;;4966331;28;19926;-92
2023/04/01 06:18:42;;;;;;;;;;;7.50;99.90;;;;;;4968426;28;19927;-90
2023/04/01 06:21:18;;;;;;;;;;;7.50;99.90;;;;;;4965380;28;19934;-90
2023/04/01 06:24:02;;;;;;;;;;;7.50;99.90;;;;;;4971074;28;19931;-88
2023/04/01 06:26:35;;;;;;;;;;;7.50;99.90;;;;;;4967218;28;19960;-91
2023/04/01 06:29:23;;;;;;;;;;;7.50;99.90;;;;;;4963901;28;20012;-89
2023/04/01 06:32:21;;;;;;;;;;;7.50;99.90;;;;;;4970271;28;20040;-89
2023/04/01 06:35:03;;;;;;;;;;;7.50;99.90;;;;;;4912831;29;19927;-90
2023/04/01 06:37:45;;;;;;;;;;;7.50;99.90;;;;;;4961103;28;19933;-88
2023/04/01 06:40:37;;;;;;;;;;;7.50;99.90;;;;;;4968917;28;19948;-91
2023/04/01 06:43:11;;;;;;;;;;;7.50;99.90;;;;;;4986654;28;20018;-91
2023/04/01 06:46:00;;;;;;;;;;;7.50;99.90;;;;;;4966856;28;20276;-89
2023/04/01 06:49:02;;;;;;;;;;;7.60;99.90;;;;;;4970381;28;19930;-91
2023/04/01 06:51:47;;;;;;;;;;;7.50;99.90;;;;;;4965789;28;20016;-88
2023/04/01 06:54:49;;;;;;;;;;;7.50;99.90;;;;;;4934043;28;21509;-91
2023/04/01 06:57:40;;;;;;;;;;;7.50;99.90;;;;;;4970619;28;19934;-91
2023/04/01 07:00:14;;;;;;;;;;;7.50;99.90;;;;;;4966288;28;19926;-89
2023/04/01 07:02:44;;;;;;;;;;;7.50;99.90;;;;;;4966148;28;19926;-89
2023/04/01 07:05:12;;;;;;;;;;;7.50;99.90;;;;;;4986899;28;19929;-90
2023/04/01 07:07:41;;;;;;;;;;;7.50;99.90;;;;;;4983070;28;19926;-88
2023/04/01 07:10:13;;;;;;;;;;;7.50;99.90;;;;;;4975032;28;19926;-91
2023/04/01 07:13:02;;;;;;;;;;;7.50;99.90;;;;;;4965708;28;20031;-90
2023/04/01 07:15:52;;;;;;;;;;;7.50;99.90;;;;;;4961969;28;19932;-90
2023/04/01 07:18:21;;;;;;;;;;;7.50;99.90;;;;;;4977615;28;19928;-93
2023/04/01 07:20:49;;;;;;;;;;;7.50;99.90;;;;;;4990902;28;19924;-93
2023/04/01 07:23:17;;;;;;;;;;;7.50;99.90;;;;;;4987267;28;19953;-89
2023/04/01 07:25:54;;;;;;;;;;;7.50;99.90;;;;;;4965101;28;20333;-90
2023/04/01 07:28:43;;;;;;;;;;;7.50;99.90;;;;;;4962214;28;20037;-88
2023/04/01 07:31:30;;;;;;;;;;;7.60;99.90;;;;;;4962516;28;20354;-88
2023/04/01 07:34:02;;;;;;;;;;;7.60;99.90;;;;;;4969015;28;19977;-91
2023/04/01 07:36:33;;;;;;;;;;;7.60;99.90;;;;;;4968895;28;19926;-89
2023/04/01 07:39:07;;;;;;;;;;;7.60;99.90;;;;;;4966661;28;19926;-88
2023/04/01 07:42:02;;;;;;;;;;;7.60;99.90;;;;;;4965882;28;20324;-88
2023/04/01 07:44:34;;;;;;;;;;;7.60;99.90;;;;;;4968117;28;20594;-86
2023/04/01 07:47:05;;;;;;;;;;;7.60;99.90;;;;;;4966191;28;19942;-91
2023/04/01 07:49:35;;;;;;;;;;;7.60;99.90;;;;;;4970324;28;19949;-87
2023/04/01 07:52:06;;;;;;;;;;;7.60;99.90;;;;;;4966221;28;19936;-89
2023/04/01 07:54:42;;;;;;;;;;;7.60;99.90;;;;;;4963814;28;19984;-85
2023/04/01 07:57:13;;;;;;;;;;;7.60;99.90;;;;;;4965174;28;20404;-89
2023/04/01 07:59:53;;;;;;;;;;;7.70;99.90;;;;;;4968541;28;19976;-87
2023/04/01 08:02:30;;;;;;;;;;;7.70;99.90;;;;;;4963120;28;20039;-90
2023/04/01 08:05:01;;;;;;;;;;;7.70;99.90;;;;;;4966743;28;20129;-89
2023/04/01 08:07:31;;;;;;;;;;;7.70;99.90;;;;;;4962548;28;19934;-90
2023/04/01 08:10:26;;;;;;;;;;;7.70;99.90;;;;;;4963235;28;20385;-92
2023/04/01 08:13:30;;;;;;;;;;;7.70;99.90;;;;;;4952288;28;19965;-90
2023/04/01 08:16:31;;;;;;;;;;;7.70;99.90;;;;;;4963529;28;20366;-91
2023/04/01 08:19:05;;;;;;;;;;;7.70;99.90;;;;;;4978536;28;19934;-89
2023/04/01 08:21:35;;;;;;;;;;;7.70;99.90;;;;;;4961418;28;20038;-89
2023/04/01 08:24:08;;;;;;;;;;;7.70;99.90;;;;;;4976994;28;19926;-93
2023/04/01 08:26:40;;;;;;;;;;;7.80;99.90;;;;;;4981446;28;19938;-92
2023/04/01 08:29:10;;;;;;;;;;;7.80;99.90;;;;;;4964092;28;20302;-89
2023/04/01 08:31:41;;;;;;;;;;;7.80;99.90;;;;;;4964280;28;19930;-90
2023/04/01 08:34:11;;;;;;;;;;;7.80;99.90;;;;;;4968410;28;20301;-92
2023/04/01 08:36:39;;;;;;;;;;;7.80;99.90;;;;;;4967427;28;19934;-90
2023/04/01 08:39:17;;;;;;;;;;;7.80;99.90;;;;;;4971694;28;19972;-90
2023/04/01 08:42:12;;;;;;;;;;;7.80;99.90;;;;;;4966971;28;20373;-90
2023/04/01 08:45:05;;;;;;;;;;;7.80;99.90;;;;;;4970296;28;20345;-89
2023/04/01 08:47:45;;;;;;;;;;;7.80;99.90;;;;;;4967829;28;20039;-91
2023/04/01 08:50:24;;;;;;;;;;;7.80;99.90;;;;;;4968155;28;20448;-92
2023/04/01 08:53:22;;;;;;;;;;;7.80;99.90;;;;;;4965274;28;19926;-91
2023/04/01 08:55:53;;;;;;;;;;;7.90;99.90;;;;;;4987830;28;20503;-91
2023/04/01 08:58:33;;;;;;;;;;;7.80;99.90;;;;;;4986826;28;19969;-90
2023/04/01 09:01:24;;;;;;;;;;;7.90;99.90;;;;;;4963161;28;20059;-90
2023/04/01 09:04:06;;;;;;;;;;;7.90;99.90;;;;;;4951735;28;19926;-91
2023/04/01 09:06:39;;;;;;;;;;;7.90;99.90;;;;;;4971034;28;19934;-91
2023/04/01 09:09:17;;;;;;;;;;;7.90;99.90;;;;;;4966402;28;20308;-90
2023/04/01 09:11:56;;;;;;;;;;;7.90;99.90;;;;;;4972708;28;19952;-91
2023/04/01 09:14:40;;;;;;;;;;;7.90;99.90;;;;;;4961606;28;19966;-90
2023/04/01 09:17:39;;;;;;;;;;;7.90;99.90;;;;;;4960778;28;20491;-87
2023/04/01 09:20:20;;;;;;;;;;;7.90;99.90;;;;;;4964384;28;19930;-91
2023/04/01 09:23:02;;;;;;;;;;;7.90;99.90;;;;;;4965899;28;19926;-91
2023/04/01 09:25:39;;;;;;;;;;;7.90;99.90;;;;;;4959157;28;19969;-92
2023/04/01 09:28:10;;;;;;;;;;;7.90;99.90;;;;;;4965314;28;19937;-90
2023/04/01 09:30:53;;;;;;;;;;;7.90;99.90;;;;;;4964463;28;19937;-89
2023/04/01 09:33:42;;;;;;;;;;;7.90;99.90;;;;;;4962058;28;19956;-91
2023/04/01 09:36:15;;;;;;;;;;;7.90;99.90;;;;;;4970891;28;19927;-90
2023/04/01 09:38:54;;;;;;;;;;;7.90;99.90;;;;;;4959411;28;20468;-92
2023/04/01 09:41:27;;;;;;;;;;;7.90;99.90;;;;;;4983600;28;19930;-91
2023/04/01 09:44:05;;;;;;;;;;;7.90;99.90;;;;;;4963845;28;19934;-91
2023/04/01 09:46:54;;;;;;;;;;;7.90;99.90;;;;;;4969283;28;19998;-91
2023/04/01 09:49:30;;;;;;;;;;;7.90;99.90;;;;;;4966494;28;19972;-91
2023/04/01 09:52:06;;;;;;;;;;;7.90;99.90;;;;;;4966593;28;19934;-89
2023/04/01 09:54:44;;;;;;;;;;;7.90;99.90;;;;;;4971013;28;20459;-92
2023/04/01 09:57:32;;;;;;;;;;;7.90;99.90;;;;;;4964956;28;19996;-90
2023/04/01 10:00:33;;;;;;;;;;;7.90;99.90;;;;;;4970635;28;19932;-91
2023/04/01 10:03:17;;;;;;;;;;;7.90;99.90;;;;;;4964531;28;20393;-89
2023/04/01 10:06:05;;;;;;;;;;;7.90;99.90;;;;;;4964813;28;19930;-91
2023/04/01 10:08:51;;;;;;;;;;;7.90;99.90;;;;;;4964822;28;19926;-90
2023/04/01 10:11:37;;;;;;;;;;;7.90;99.90;;;;;;4970348;28;19933;-91
2023/04/01 10:14:24;;;;;;;;;;;7.90;99.90;;;;;;4966154;28;19927;-90
2023/04/01 10:17:10;;;;;;;;;;;7.90;99.90;;;;;;4967138;28;20389;-90
2023/04/01 10:20:10;;;;;;;;;;;7.90;99.90;;;;;;4971104;28;19966;-90
2023/04/01 10:22:52;;;;;;;;;;;7.90;99.90;;;;;;4912923;29;19962;-90
2023/04/01 10:25:30;;;;;;;;;;;7.90;99.90;;;;;;4938838;28;19992;-92
2023/04/01 10:28:23;;;;;;;;;;;7.90;99.90;;;;;;4964577;28;19926;-92
2023/04/01 10:31:42;;;;;;;;;;;7.90;99.90;;;;;;4965017;28;19977;-90
2023/04/01 10:34:30;;;;;;;;;;;7.90;99.90;;;;;;4967750;28;19940;-92
2023/04/01 10:36:59;;;;;;;;;;;7.90;99.90;;;;;;4963986;28;19926;-91
2023/04/01 10:39:58;;;;;;;;;;;7.90;99.90;;;;;;4966986;28;20149;-90
2023/04/01 10:42:54;;;;;;;;;;;8.00;99.90;;;;;;4961577;28;19934;-89
2023/04/01 10:46:05;;;;;;;;;;;8.00;99.90;;;;;;4964200;28;20009;-90
2023/04/01 10:48:47;;;;;;;;;;;8.00;99.90;;;;;;4977861;28;20041;-91
2023/04/01 10:51:21;;;;;;;;;;;8.00;99.90;;;;;;4983318;28;19961;-92
2023/04/01 10:54:07;;;;;;;;;;;8.00;99.90;;;;;;4999896;28;19920;-92
2023/04/01 10:57:13;;;;;;;;;;;8.00;99.90;;;;;;4937518;28;20025;-91
2023/04/01 11:00:33;;;;;;;;;;;8.00;99.90;;;;;;4947375;28;21385;-91
2023/04/01 11:03:37;;;;;;;;;;;8.00;99.90;;;;;;4964967;28;20415;-90
2023/04/01 11:06:57;;;;;;;;;;;8.00;99.90;;;;;;4949428;28;19995;-92
2023/04/01 11:09:44;;;;;;;;;;;8.00;99.90;;;;;;4951476;28;19997;-91
2023/04/01 11:12:22;;;;;;;;;;;8.00;99.90;;;;;;4967214;28;19934;-91
2023/04/01 11:15:02;;;;;;;;;;;8.00;99.90;;;;;;4962595;28;20005;-90
2023/04/01 11:17:47;;;;;;;;;;;8.00;99.90;;;;;;4970483;28;19938;-90
2023/04/01 11:20:24;;;;;;;;;;;8.00;99.90;;;;;;4966569;28;20304;-89
2023/04/01 11:23:16;;;;;;;;;;;8.00;99.90;;;;;;4964732;28;19966;-90
2023/04/01 11:25:51;;;;;;;;;;;8.00;99.90;;;;;;4960114;28;20517;-90
2023/04/01 11:28:45;;;;;;;;;;;8.10;99.90;;;;;;4966760;28;20401;-91
2023/04/01 11:31:27;;;;;;;;;;;8.10;99.90;;;;;;4969492;28;19926;-91
2023/04/01 11:33:56;;;;;;;;;;;8.10;99.90;;;;;;4965040;28;19970;-91
2023/04/01 11:36:31;;;;;;;;;;;8.10;99.90;;;;;;4963836;28;20362;-91
2023/04/01 11:39:03;;;;;;;;;;;8.00;99.90;;;;;;4971535;28;19934;-91
2023/04/01 11:42:03;;;;;;;;;;;8.00;99.90;;;;;;4948518;28;19926;-90
2023/04/01 11:44:35;;;;;;;;;;;8.10;99.90;;;;;;4967678;28;19937;-90
2023/04/01 11:47:29;;;;;;;;;;;8.10;99.90;;;;;;4963327;28;19934;-91
2023/04/01 11:50:00;;;;;;;;;;;8.10;99.90;;;;;;4966723;28;19927;-90
2023/04/01 11:52:55;;;;;;;;;;;8.10;99.90;;;;;;4979672;28;19973;-89
2023/04/01 11:55:26;;;;;;;;;;;8.10;99.90;;;;;;4988757;28;20997;-89
2023/04/01 11:58:11;;;;;;;;;;;8.10;99.90;;;;;;4971302;28;19941;-90
2023/04/01 12:00:59;;;;;;;;;;;8.10;99.90;;;;;;4964417;28;20353;-90
2023/04/01 12:03:39;;;;;;;;;;;8.10;99.90;;;;;;4965959;28;20440;-91
2023/04/01 12:06:09;;;;;;;;;;;8.10;99.90;;;;;;4971048;28;19999;-91
2023/04/01 12:08:40;;;;;;;;;;;8.10;99.90;;;;;;4979723;28;19938;-91
2023/04/01 12:11:15;;;;;;;;;;;8.10;99.90;;;;;;4973684;28;20372;-81
2023/04/01 12:13:45;;;;;;;;;;;8.10;99.90;;;;;;4974087;28;19927;-86
2023/04/01 12:16:22;;;;;;;;;;;8.10;99.90;;;;;;4968747;28;20024;-85
2023/04/01 12:18:51;;;;;;;;;;;8.20;99.90;;;;;;4972916;28;19953;-87
2023/04/01 12:21:24;;;;;;;;;;;8.10;99.90;;;;;;4964095;28;19935;-92
2023/04/01 12:24:06;;;;;;;;;;;8.20;99.90;;;;;;4969806;28;20388;-92
2023/04/01 12:26:39;;;;;;;;;;;8.20;99.90;;;;;;4973360;28;21124;-91
2023/04/01 12:29:18;;;;;;;;;;;8.20;99.90;;;;;;4970147;28;19926;-93
2023/04/01 12:31:50;;;;;;;;;;;8.20;99.90;;;;;;4969232;28;19957;-91
2023/04/01 12:34:30;;;;;;;;;;;8.20;99.90;;;;;;4968705;28;19926;-91
2023/04/01 12:37:02;;;;;;;;;;;8.30;99.90;;;;;;4965874;28;19961;-94
2023/04/01 12:39:34;;;;;;;;;;;8.30;99.90;;;;;;4968308;28;19930;-92
2023/04/01 12:42:05;;;;;;;;;;;8.30;99.90;;;;;;4964594;28;19961;-92
2023/04/01 12:44:42;;;;;;;;;;;8.30;99.90;;;;;;4969236;28;19934;-91
2023/04/01 12:47:23;;;;;;;;;;;8.30;99.90;;;;;;4970589;28;19984;-94
2023/04/01 12:49:57;;;;;;;;;;;8.40;99.90;;;;;;4974831;28;19930;-91
2023/04/01 12:52:32;;;;;;;;;;;8.40;99.90;;;;;;4975728;28;19930;-91
2023/04/01 12:55:16;;;;;;;;;;;8.40;99.90;;;;;;4966163;28;19931;-92
2023/04/01 12:57:58;;;;;;;;;;;8.40;99.90;;;;;;4970551;28;19979;-93
2023/04/01 13:00:35;;;;;;;;;;;8.40;99.90;;;;;;4961433;28;19926;-95
2023/04/01 13:03:10;;;;;;;;;;;8.40;99.90;;;;;;4971458;28;19941;-90
2023/04/01 13:05:56;;;;;;;;;;;8.40;99.90;;;;;;4963903;28;19949;-92
2023/04/01 13:08:36;;;;;;;;;;;8.40;99.90;;;;;;4959099;28;20012;-91
2023/04/01 13:11:09;;;;;;;;;;;8.50;99.90;;;;;;4969355;28;20353;-90
2023/04/01 13:13:44;;;;;;;;;;;8.50;99.90;;;;;;4967319;28;20472;-93
2023/04/01 13:16:14;;;;;;;;;;;8.50;99.90;;;;;;4966098;28;19930;-91
2023/04/01 13:18:49;;;;;;;;;;;8.50;99.90;;;;;;4963591;28;19973;-90
2023/04/01 13:21:22;;;;;;;;;;;8.50;99.90;;;;;;4965433;28;20031;-90
2023/04/01 13:23:55;;;;;;;;;;;8.50;99.90;;;;;;4967835;28;19937;-91
2023/04/01 13:26:28;;;;;;;;;;;8.50;99.90;;;;;;4958988;28;19926;-93
2023/04/01 13:28:59;;;;;;;;;;;8.50;99.90;;;;;;4962870;28;20401;-91
2023/04/01 13:31:31;;;;;;;;;;;8.60;99.90;;;;;;4963489;28;19935;-92
2023/04/01 13:34:05;;;;;;;;;;;8.60;99.90;;;;;;4964641;28;19926;-91
2023/04/01 13:36:37;;;;;;;;;;;8.60;99.90;;;;;;4961381;28;20479;-93
2023/04/01 13:39:16;;;;;;;;;;;8.60;99.90;;;;;;4966767;28;20348;-91
2023/04/01 13:41:49;;;;;;;;;;;8.60;99.90;;;;;;4977845;28;20037;-92
2023/04/01 13:44:19;;;;;;;;;;;8.70;99.90;;;;;;4959726;28;19981;-92
2023/04/01 13:46:55;;;;;;;;;;;8.70;99.90;;;;;;4962228;28;19933;-91
2023/04/01 13:49:37;;;;;;;;;;;8.70;99.90;;;;;;4960333;28;19930;-92
2023/04/01 13:52:13;;;;;;;;;;;8.70;99.90;;;;;;4965506;28;19930;-92
2023/04/01 13:54:55;;;;;;;;;;;8.70;99.90;;;;;;4960000;28;19977;-90
2023/04/01 13:57:26;;;;;;;;;;;8.70;99.90;;;;;;4958947;28;19977;-92
2023/04/01 14:00:14;;;;;;;;;;;8.80;99.90;;;;;;4966439;28;19927;-93
2023/04/01 14:03:00;;;;;;;;;;;8.80;99.90;;;;;;4962203;28;21281;-91
2023/04/01 14:05:37;;;;;;;;;;;8.80;99.90;;;;;;4961518;28;20210;-90
2023/04/01 14:08:09;;;;;;;;;;;8.80;99.90;;;;;;4963416;28;19934;-91
2023/04/01 14:10:41;;;;;;;;;;;8.80;99.90;;;;;;4967352;28;20401;-90
2023/04/01 14:13:13;;;;;;;;;;;8.80;99.90;;;;;;4962392;28;19934;-91
2023/04/01 14:15:46;;;;;;;;;;;8.90;99.90;;;;;;4976337;28;19937;-90
2023/04/01 14:18:28;;;;;;;;;;;8.90;99.90;;;;;;4979708;28;19922;-93
2023/04/01 14:21:03;;;;;;;;;;;8.90;99.90;;;;;;4998049;28;19927;-94
2023/04/01 14:23:47;;;;;;;;;;;8.90;99.90;;;;;;4966121;28;19926;-92
2023/04/01 14:26:21;;;;;;;;;;;8.90;99.90;;;;;;4957005;28;19930;-92
2023/04/01 14:28:51;;;;;;;;;;;8.90;99.90;;;;;;4958716;28;20369;-91
2023/04/01 14:31:43;;;;;;;;;;;8.90;99.90;;;;;;4964807;28;19926;-91
2023/04/01 14:34:17;;;;;;;;;;;9.00;99.90;;;;;;4964034;28;19945;-94
2023/04/01 14:36:50;;;;;;;;;;;9.00;99.90;;;;;;4959090;28;20149;-90
2023/04/01 14:39:27;;;;;;;;;;;8.90;99.90;;;;;;4965288;28;19945;-91
2023/04/01 14:42:00;;;;;;;;;;;8.90;99.90;;;;;;4956089;28;19962;-91
2023/04/01 14:44:45;;;;;;;;;;;9.00;99.90;;;;;;4958748;28;20395;-92
2023/04/01 14:47:16;;;;;;;;;;;8.90;99.90;;;;;;4959697;28;19934;-93
2023/04/01 14:49:45;;;;;;;;;;;9.00;99.90;;;;;;4958458;28;19930;-91
2023/04/01 14:52:16;;;;;;;;;;;9.00;99.90;;;;;;4961727;28;19933;-92
2023/04/01 14:54:45;;;;;;;;;;;9.00;99.90;;;;;;4957308;28;20029;-92
2023/04/01 14:57:13;;;;;;;;;;;9.00;99.90;;;;;;4957506;28;19974;-91
2023/04/01 14:59:41;;;;;;;;;;;9.00;99.90;;;;;;4957494;28;20207;-90
2023/04/01 15:02:15;;;;;;;;;;;9.00;99.90;;;;;;4953525;28;19977;-90
2023/04/01 15:04:54;;;;;;;;;;;9.00;99.90;;;;;;4962725;28;19930;-92
2023/04/01 15:07:38;;;;;;;;;;;9.00;99.90;;;;;;4958819;28;19930;-91
2023/04/01 15:10:19;;;;;;;;;;;9.00;99.90;;;;;;4958727;28;19937;-91
2023/04/01 15:12:52;;;;;;;;;;;9.00;99.90;;;;;;4957632;28;20025;-91
2023/04/01 15:15:25;;;;;;;;;;;9.10;99.90;;;;;;4957238;28;19942;-91
2023/04/01 15:17:59;;;;;;;;;;;9.10;99.90;;;;;;4959915;28;20404;-90